createdAt,value
2022-11-19T00:02:52.261Z,5.01
2022-11-19T00:08:08.190Z,5.01
2022-11-19T00:13:16.438Z,5.04
2022-11-19T00:18:22.021Z,5.09
2022-11-19T00:23:26.669Z,5.09
2022-11-19T00:28:33.252Z,4.96
2022-11-19T00:33:47.854Z,4.96
2022-11-19T00:38:58.847Z,4.94
2022-11-19T00:44:07.700Z,4.83
2022-11-19T00:49:15.296Z,4.69
2022-11-19T00:54:30.042Z,4.79
2022-11-19T00:59:33.967Z,4.88
2022-11-19T01:04:41.619Z,5.01
2022-11-19T01:09:45.059Z,4.99
2022-11-19T01:14:48.777Z,5.04
2022-11-19T01:19:53.097Z,5.06
2022-11-19T01:25:01.970Z,5.07
2022-11-19T01:30:06.088Z,5.06
2022-11-19T01:35:10.042Z,5.17
2022-11-19T01:40:18.489Z,5.14
2022-11-19T01:45:23.203Z,5.19
2022-11-19T01:50:26.821Z,5.23
2022-11-19T01:55:31.227Z,5.32
2022-11-19T02:00:36.232Z,5.35
2022-11-19T02:05:43.731Z,5.31
2022-11-19T02:10:47.828Z,5.26
2022-11-19T02:15:56.173Z,5.32
2022-11-19T02:21:08.982Z,5.31
2022-11-19T02:26:18.150Z,5.35
2022-11-19T02:31:26.019Z,5.33
2022-11-19T02:36:33.134Z,5.29
2022-11-19T02:41:40.195Z,5.32
2022-11-19T02:46:48.633Z,5.39
2022-11-19T02:51:54.854Z,5.41
2022-11-19T02:57:05.062Z,5.35
2022-11-19T03:02:31.941Z,5.35
2022-11-19T03:07:38.056Z,5.36
2022-11-19T03:13:01.633Z,5.34
2022-11-19T03:18:09.061Z,5.35
2022-11-19T03:23:13.041Z,5.35
2022-11-19T03:28:18.140Z,5.35
2022-11-19T03:33:23.681Z,5.29
2022-11-19T03:38:45.797Z,5.39
2022-11-19T03:43:50.948Z,5.35
2022-11-19T03:48:55.097Z,5.31
2022-11-19T03:54:17.946Z,5.30
2022-11-19T03:59:33.034Z,5.33
2022-11-19T04:04:43.875Z,5.30
2022-11-19T04:10:06.163Z,5.33
2022-11-19T04:15:10.544Z,5.24
2022-11-19T04:20:14.168Z,5.21
2022-11-19T04:25:25.876Z,5.13
2022-11-19T04:30:51.471Z,5.16
2022-11-19T04:35:54.643Z,5.10
2022-11-19T04:41:03.152Z,5.00
2022-11-19T04:46:07.328Z,4.96
2022-11-19T04:51:12.844Z,5.04
2022-11-19T04:56:19.100Z,5.12
2022-11-19T05:01:29.900Z,5.07
2022-11-19T05:06:38.279Z,5.07
2022-11-19T05:11:47.297Z,5.06
2022-11-19T05:17:06.598Z,4.93
2022-11-19T05:22:12.090Z,4.74
2022-11-19T05:27:17.425Z,4.61
2022-11-19T05:32:23.550Z,4.53
2022-11-19T05:37:34.628Z,4.45
2022-11-19T05:42:41.595Z,4.43
2022-11-19T05:47:52.117Z,4.51
2022-11-19T05:53:00.639Z,4.50
2022-11-19T05:58:05.957Z,4.47
2022-11-19T06:03:29.845Z,4.47
2022-11-19T06:08:34.315Z,4.41
2022-11-19T06:13:38.763Z,4.41
2022-11-19T06:18:43.616Z,4.47
2022-11-19T06:23:46.995Z,4.52
2022-11-19T06:28:58.335Z,4.64
2022-11-19T06:34:10.682Z,4.74
2022-11-19T06:39:32.228Z,4.76
2022-11-19T06:44:49.596Z,4.87
2022-11-19T06:49:54.974Z,4.97
2022-11-19T06:54:59.559Z,4.94
2022-11-19T07:00:05.356Z,5.12
2022-11-19T07:05:08.658Z,5.25
2022-11-19T07:10:13.669Z,5.28
2022-11-19T07:15:19.586Z,5.33
2022-11-19T07:20:24.936Z,5.43
2022-11-19T07:25:28.239Z,5.53
2022-11-19T07:30:36.746Z,5.51
2022-11-19T07:35:41.096Z,5.60
2022-11-19T07:40:47.424Z,6.00
2022-11-19T07:45:53.916Z,6.20
2022-11-19T07:51:09.745Z,6.25
2022-11-19T07:56:15.507Z,6.20
2022-11-19T08:01:22.533Z,6.16
2022-11-19T08:06:35.098Z,6.32
2022-11-19T08:11:43.191Z,6.53
2022-11-19T08:17:14.479Z,6.86
2022-11-19T08:22:20.605Z,7.29
2022-11-19T08:27:26.724Z,7.28
2022-11-19T08:32:34.913Z,7.47
2022-11-19T08:37:48.333Z,7.29
2022-11-19T08:43:07.425Z,7.15
2022-11-19T08:48:14.144Z,7.10
2022-11-19T08:53:20.150Z,7.19
2022-11-19T08:58:29.286Z,7.47
2022-11-19T09:03:35.127Z,7.45
2022-11-19T09:08:40.069Z,7.30
2022-11-19T09:13:43.349Z,7.34
2022-11-19T09:18:52.822Z,7.38
2022-11-19T09:23:59.717Z,7.40
2022-11-19T09:29:14.616Z,7.75
2022-11-19T09:34:23.847Z,8.23
2022-11-19T09:39:32.973Z,8.29
2022-11-19T09:44:51.637Z,8.31
2022-11-19T09:49:59.080Z,8.36
2022-11-19T09:55:05.485Z,7.98
2022-11-19T10:00:17.507Z,8.07
2022-11-19T10:05:22.041Z,8.23
2022-11-19T10:10:26.126Z,7.95
2022-11-19T10:15:39.241Z,7.35
2022-11-19T10:20:43.164Z,7.17
2022-11-19T10:25:58.085Z,7.09
2022-11-19T10:31:02.918Z,6.92
2022-11-19T10:36:07.442Z,6.85
2022-11-19T10:41:12.006Z,7.08
2022-11-19T10:46:23.642Z,7.21
2022-11-19T10:51:27.897Z,7.42
2022-11-19T10:56:33.916Z,7.78
2022-11-19T11:01:38.770Z,8.02
2022-11-19T11:06:42.346Z,8.12
2022-11-19T11:12:06.360Z,7.81
2022-11-19T11:17:13.932Z,7.70
2022-11-19T11:22:18.635Z,7.86
2022-11-19T11:27:29.351Z,8.10
2022-11-19T11:32:37.437Z,8.00
2022-11-19T11:37:42.366Z,8.02
2022-11-19T11:42:53.287Z,7.53
2022-11-19T11:48:11.253Z,6.53
2022-11-19T11:53:16.088Z,6.53
2022-11-19T11:58:24.048Z,6.62
2022-11-19T12:03:49.401Z,7.05
2022-11-19T12:09:36.295Z,7.08
2022-11-19T12:14:44.877Z,6.96
2022-11-19T12:19:50.543Z,6.91
2022-11-19T12:25:05.937Z,6.85
2022-11-19T12:30:18.315Z,6.76
2022-11-19T12:35:21.678Z,6.72
2022-11-19T12:40:36.489Z,6.87
2022-11-19T12:45:55.265Z,7.24
2022-11-19T12:50:59.848Z,7.69
2022-11-19T12:56:03.217Z,8.34
2022-11-19T13:01:08.015Z,8.87
2022-11-19T13:06:17.657Z,8.71
2022-11-19T13:11:27.284Z,7.81
2022-11-19T13:16:44.321Z,7.37
2022-11-19T13:21:52.498Z,7.00
2022-11-19T13:26:59.188Z,6.79
2022-11-19T13:32:07.868Z,6.77
2022-11-19T13:37:13.992Z,6.82
2022-11-19T13:42:37.061Z,6.99
2022-11-19T13:47:48.403Z,6.99
2022-11-19T13:53:12.821Z,6.97
2022-11-19T13:58:17.821Z,6.95
2022-11-19T14:03:22.071Z,7.15
2022-11-19T14:08:37.393Z,7.06
2022-11-19T14:13:43.247Z,7.13
2022-11-19T14:19:07.356Z,7.03
2022-11-19T14:24:44.642Z,7.01
2022-11-19T14:29:50.199Z,7.19
2022-11-19T14:34:55.897Z,7.25
2022-11-19T14:39:59.743Z,7.22
2022-11-19T14:45:05.004Z,7.19
2022-11-19T14:50:08.800Z,7.21
2022-11-19T14:55:16.108Z,7.40
2022-11-19T15:00:19.927Z,7.19
2022-11-19T15:05:25.933Z,6.97
2022-11-19T15:10:29.901Z,6.70
2022-11-19T15:15:41.311Z,6.49
2022-11-19T15:20:45.793Z,6.27
2022-11-19T15:25:51.936Z,6.17
2022-11-19T15:30:56.523Z,6.33
2022-11-19T15:36:04.752Z,6.40
2022-11-19T15:41:25.021Z,6.40
2022-11-19T15:46:30.801Z,6.48
2022-11-19T15:51:43.962Z,6.62
2022-11-19T15:56:49.703Z,6.66
2022-11-19T16:01:53.133Z,6.64
2022-11-19T16:06:56.577Z,6.70
2022-11-19T16:12:24.203Z,6.64
2022-11-19T16:17:44.626Z,6.62
2022-11-19T16:23:04.565Z,6.65
2022-11-19T16:28:21.579Z,6.70
2022-11-19T16:33:27.390Z,6.69
2022-11-19T16:38:32.111Z,6.70
2022-11-19T16:49:05.425Z,6.52
2022-11-19T16:54:11.345Z,6.58
2022-11-19T16:59:24.000Z,6.49
2022-11-19T17:04:29.989Z,6.47
2022-11-19T17:09:37.804Z,6.40
2022-11-19T17:14:45.472Z,6.59
2022-11-19T17:20:01.751Z,6.46
2022-11-19T17:25:05.442Z,6.44
2022-11-19T17:30:09.025Z,6.54
2022-11-19T17:35:16.050Z,6.63
2022-11-19T17:40:21.718Z,6.52
2022-11-19T17:45:26.822Z,6.20
2022-11-19T17:50:39.770Z,5.97
2022-11-19T17:55:43.652Z,5.76
2022-11-19T18:00:47.068Z,5.73
2022-11-19T18:06:05.726Z,5.62
2022-11-19T18:11:29.533Z,5.68
2022-11-19T18:16:38.430Z,5.74
2022-11-19T18:21:50.679Z,5.78
2022-11-19T18:26:55.833Z,5.66
2022-11-19T18:31:59.261Z,5.57
2022-11-19T18:37:04.454Z,5.40
2022-11-19T18:42:08.768Z,5.21
2022-11-19T18:47:20.373Z,5.02
2022-11-19T18:52:27.118Z,5.08
2022-11-19T18:57:30.651Z,5.11
2022-11-19T19:02:35.895Z,5.10
2022-11-19T19:07:38.895Z,5.12
2022-11-19T19:12:45.474Z,5.13
2022-11-19T19:17:49.746Z,5.10
2022-11-19T19:22:59.507Z,5.10
2022-11-19T19:28:04.620Z,5.09
2022-11-19T19:33:13.308Z,5.06
2022-11-19T19:38:16.511Z,5.06
2022-11-19T19:43:26.913Z,4.99
2022-11-19T19:48:31.458Z,5.03
2022-11-19T19:53:38.409Z,5.00
2022-11-19T19:58:43.731Z,5.10
2022-11-19T20:03:53.182Z,5.14
2022-11-19T20:08:58.756Z,5.24
2022-11-19T20:14:01.998Z,5.34
2022-11-19T20:19:09.605Z,5.34
2022-11-19T20:24:14.108Z,5.35
2022-11-19T20:29:18.720Z,5.36
2022-11-19T20:34:25.440Z,5.32
2022-11-19T20:39:30.486Z,5.30
2022-11-19T20:44:49.557Z,5.25
2022-11-19T20:50:02.077Z,5.25
2022-11-19T20:55:13.769Z,5.32
2022-11-19T21:00:19.057Z,5.31
2022-11-19T21:05:24.915Z,5.24
2022-11-19T21:10:29.855Z,5.19
2022-11-19T21:15:34.716Z,5.12
2022-11-19T21:20:39.880Z,5.02
2022-11-19T21:25:44.187Z,4.93
2022-11-19T21:30:57.123Z,4.86
2022-11-19T21:36:00.661Z,4.77
2022-11-19T21:41:14.469Z,4.74
2022-11-19T21:46:28.461Z,4.66
2022-11-19T21:51:35.509Z,4.57
2022-11-19T21:56:43.275Z,4.64
2022-11-19T22:01:55.101Z,4.72
2022-11-19T22:07:04.136Z,4.73
2022-11-19T22:12:13.587Z,4.73
2022-11-19T22:17:32.660Z,4.65
2022-11-19T22:22:43.243Z,4.71
2022-11-19T22:27:47.095Z,4.67
2022-11-19T22:32:50.714Z,4.54
2022-11-19T22:38:07.410Z,4.65
2022-11-19T22:43:23.780Z,4.68
2022-11-19T22:48:36.588Z,4.58
2022-11-19T22:53:42.501Z,4.47
2022-11-19T22:58:50.425Z,4.47
2022-11-19T23:04:03.483Z,4.46
2022-11-19T23:09:09.332Z,4.55
2022-11-19T23:14:19.062Z,4.52
2022-11-19T23:19:33.975Z,4.48
2022-11-19T23:24:49.204Z,4.49
2022-11-19T23:30:00.613Z,4.52
2022-11-19T23:35:12.268Z,4.60
2022-11-19T23:40:24.218Z,4.61
2022-11-19T23:45:31.201Z,4.70
2022-11-19T23:50:45.160Z,4.74
2022-11-19T23:55:50.708Z,4.87
